Time;durP1;ratioP1;P1;durP2;ratioP2;P2;SDS_P1;SDS_P2;PMS_P1;PMS_P2;Temp;Humidity;BMP_temperature;BMP_pressure;BME280_temperature;BME280_humidity;BME280_pressure;Samples;Min_cycle;Max_cycle;Signal;HPM_P1;HPM_P2
2021/06/08 00:01:35;;;;;;;7.93;7.22;;;;;;;15.99;79.54;99239.34;6096894;23;20022;-80
2021/06/08 00:04:01;;;;;;;7.68;6.88;;;;;;;15.97;79.83;99235.94;6120961;23;20022;-78
2021/06/08 00:06:27;;;;;;;8.10;6.75;;;;;;;16.00;79.69;99236.41;6120878;23;20519;-80
2021/06/08 00:08:52;;;;;;;7.63;6.88;;;;;;;16.00;79.69;99241.84;6145458;23;20118;-81
2021/06/08 00:11:20;;;;;;;9.48;7.25;;;;;;;15.98;79.77;99234.91;6120992;23;20053;-78
2021/06/08 00:13:48;;;;;;;7.35;6.65;;;;;;;15.88;79.96;99227.06;6096856;23;20102;-82
2021/06/08 00:16:15;;;;;;;9.68;7.53;;;;;;;15.90;80.11;99227.69;6121731;23;21357;-81
2021/06/08 00:18:40;;;;;;;10.55;6.60;;;;;;;15.83;80.14;99229.53;6123188;23;20148;-80
2021/06/08 00:21:07;;;;;;;10.00;7.78;;;;;;;15.79;80.36;99233.69;6122261;23;20496;-78
2021/06/08 00:23:33;;;;;;;10.43;8.13;;;;;;;15.72;80.51;99232.78;6122823;23;20045;-82
2021/06/08 00:25:59;;;;;;;10.50;8.10;;;;;;;15.60;81.17;99230.53;6121040;23;20151;-79
2021/06/08 00:28:25;;;;;;;8.73;7.93;;;;;;;15.49;81.69;99233.78;6122501;23;20021;-81
2021/06/08 00:30:59;;;;;;;9.18;7.68;;;;;;;15.46;81.56;99231.44;6124291;23;20073;-81
2021/06/08 00:33:25;;;;;;;8.55;7.75;;;;;;;15.45;81.70;99232.47;6123566;23;20384;-80
2021/06/08 00:35:51;;;;;;;7.95;7.20;;;;;;;15.40;81.77;99235.78;6096622;23;20026;-81
2021/06/08 00:38:17;;;;;;;8.35;7.53;;;;;;;15.38;82.00;99243.28;6121619;23;20018;-80
2021/06/08 00:40:44;;;;;;;9.38;7.63;;;;;;;15.32;82.36;99232.31;6122339;23;20416;-81
2021/06/08 00:43:10;;;;;;;8.27;7.15;;;;;;;15.31;82.42;99230.63;6121787;23;20022;-80
2021/06/08 00:45:36;;;;;;;10.38;7.32;;;;;;;15.29;82.48;99232.72;6120618;23;20523;-81
2021/06/08 00:48:03;;;;;;;9.40;7.70;;;;;;;15.20;82.70;99235.53;6120937;23;20022;-80
2021/06/08 00:50:29;;;;;;;9.88;8.35;;;;;;;15.17;82.97;99240.53;6122071;23;20076;-79
2021/06/08 00:52:54;;;;;;;10.32;8.25;;;;;;;15.16;82.93;99233.41;6122137;23;20515;-80
2021/06/08 00:55:21;;;;;;;10.05;8.50;;;;;;;15.09;83.18;99237.91;6120654;23;20049;-79
2021/06/08 00:57:49;;;;;;;10.52;8.13;;;;;;;15.06;83.43;99243.72;6120211;23;20517;-81
2021/06/08 01:00:16;;;;;;;9.52;8.52;;;;;;;15.01;83.51;99244.31;6145418;23;20041;-80
2021/06/08 01:02:42;;;;;;;8.77;7.85;;;;;;;14.94;83.46;99237.94;6120236;23;20392;-79
2021/06/08 01:05:09;;;;;;;10.70;8.18;;;;;;;14.93;83.87;99249.88;6072251;23;20029;-82
2021/06/08 01:07:36;;;;;;;10.75;9.38;;;;;;;14.89;83.80;99248.56;6121850;23;20014;-79
2021/06/08 01:10:05;;;;;;;10.10;9.05;;;;;;;14.86;83.94;99243.50;6121938;23;20030;-80
2021/06/08 01:12:31;;;;;;;11.52;9.20;;;;;;;14.84;84.04;99246.38;6047665;23;20017;-79
2021/06/08 01:14:57;;;;;;;11.57;10.00;;;;;;;14.71;84.69;99243.50;6120110;23;20064;-81
2021/06/08 01:17:22;;;;;;;11.30;9.00;;;;;;;14.69;84.32;99240.94;6121805;23;20463;-81
2021/06/08 01:19:48;;;;;;;11.48;8.88;;;;;;;14.76;84.23;99249.22;6119417;23;20041;-79
2021/06/08 01:22:15;;;;;;;9.88;8.88;;;;;;;14.71;84.34;99249.78;6118407;23;20044;-80
2021/06/08 01:24:40;;;;;;;9.75;8.75;;;;;;;14.76;84.14;99242.94;6119658;23;20036;-79
2021/06/08 01:27:07;;;;;;;9.73;8.70;;;;;;;14.74;84.25;99228.69;6119383;23;20088;-81
2021/06/08 01:29:38;;;;;;;9.60;8.55;;;;;;;14.71;84.32;99241.63;6121911;23;20021;-79
2021/06/08 01:32:06;;;;;;;12.18;8.55;;;;;;;14.76;83.93;99240.19;6121414;23;20033;-79
2021/06/08 01:34:32;;;;;;;9.63;8.63;;;;;;;14.78;83.98;99240.88;6119682;23;20045;-79
2021/06/08 01:36:58;;;;;;;9.82;8.80;;;;;;;14.83;83.73;99243.88;6094964;23;20333;-79
2021/06/08 01:39:25;;;;;;;9.80;8.63;;;;;;;14.86;83.53;99243.50;6119162;23;20074;-80
2021/06/08 01:41:51;;;;;;;9.95;9.00;;;;;;;14.87;83.82;99237.00;6119846;23;20445;-79
2021/06/08 01:44:17;;;;;;;9.73;8.70;;;;;;;14.90;83.59;99239.34;6121461;23;20029;-76
2021/06/08 01:46:42;;;;;;;10.73;9.18;;;;;;;14.95;83.44;99242.34;6121722;23;20070;-80
2021/06/08 01:49:08;;;;;;;12.02;9.13;;;;;;;14.93;83.42;99234.38;6121279;23;20342;-81
2021/06/08 01:51:40;;;;;;;25.30;10.32;;;;;;;15.01;83.49;99241.59;6121655;23;20037;-79
2021/06/08 01:54:24;;;;;;;10.98;9.65;;;;;;;15.10;82.96;99239.59;6122087;23;20033;-81
2021/06/08 01:57:06;;;;;;;10.85;9.00;;;;;;;15.20;82.78;99243.72;6096232;23;20093;-79
2021/06/08 01:59:50;;;;;;;9.93;8.93;;;;;;;15.29;82.38;99241.72;6120966;23;20049;-79
2021/06/08 02:02:25;;;;;;;19.65;10.63;;;;;;;15.36;82.01;99231.75;6121988;23;20062;-82
2021/06/08 02:05:17;;;;;;;21.38;10.93;;;;;;;15.48;81.77;99232.09;6120673;23;20376;-79
2021/06/08 02:07:58;;;;;;;11.25;9.57;;;;;;;15.57;81.91;99232.81;6120335;23;20101;-79
2021/06/08 02:10:38;;;;;;;12.38;10.23;;;;;;;15.63;81.89;99237.47;6143668;23;20455;-79
2021/06/08 02:13:23;;;;;;;12.90;10.35;;;;;;;15.71;81.30;99236.53;6071531;23;20101;-79
2021/06/08 02:16:02;;;;;;;12.65;10.18;;;;;;;15.73;81.29;99237.22;6119678;23;20028;-80
2021/06/08 02:18:29;;;;;;;21.60;10.98;;;;;;;15.78;81.25;99232.00;6094604;23;20312;-80
2021/06/08 02:20:58;;;;;;;11.05;9.95;;;;;;;15.87;80.77;99239.84;6118669;23;20476;-79
2021/06/08 02:23:24;;;;;;;10.95;9.85;;;;;;;15.95;80.15;99236.16;6120422;23;20022;-79
2021/06/08 02:25:51;;;;;;;11.50;10.13;;;;;;;16.05;79.86;99243.97;6098550;23;20038;-78
2021/06/08 02:28:20;;;;;;;10.75;9.75;;;;;;;16.15;79.44;99247.22;6097668;23;20025;-80
2021/06/08 02:30:47;;;;;;;11.05;9.88;;;;;;;16.24;79.17;99245.22;6123965;23;20129;-79
2021/06/08 02:33:14;;;;;;;15.85;10.50;;;;;;;16.29;78.83;99245.44;6123897;23;20475;-79
2021/06/08 02:35:40;;;;;;;13.00;10.20;;;;;;;16.36;78.54;99243.63;6071429;23;20033;-81
2021/06/08 02:38:07;;;;;;;10.90;9.32;;;;;;;16.43;78.39;99241.78;6121552;23;20060;-79
2021/06/08 02:40:33;;;;;;;11.85;10.57;;;;;;;16.51;78.38;99244.34;6121806;23;20120;-80
2021/06/08 02:43:00;;;;;;;10.52;9.52;;;;;;;16.55;78.39;99248.34;6143893;23;20544;-80
2021/06/08 02:45:28;;;;;;;14.55;10.15;;;;;;;16.65;78.26;99245.28;6119807;23;20026;-81
2021/06/08 02:47:55;;;;;;;11.75;9.68;;;;;;;16.67;78.21;99258.72;6071648;23;20049;-80
2021/06/08 02:50:23;;;;;;;11.75;10.55;;;;;;;16.72;77.87;99253.50;6121060;23;20033;-80
2021/06/08 02:52:53;;;;;;;14.20;10.27;;;;;;;16.75;77.91;99244.97;6123299;23;20018;-79
2021/06/08 02:55:25;;;;;;;12.93;10.80;;;;;;;16.81;77.75;99238.69;6122041;23;20072;-80
2021/06/08 02:57:53;;;;;;;13.23;11.40;;;;;;;16.80;77.69;99242.47;6147990;23;20306;-79
2021/06/08 03:00:19;;;;;;;16.45;11.65;;;;;;;16.85;77.61;99248.16;6122512;23;20022;-82
2021/06/08 03:02:47;;;;;;;14.68;10.85;;;;;;;16.88;77.18;99239.56;6122156;23;20095;-81
2021/06/08 03:05:26;;;;;;;14.18;11.27;;;;;;;16.99;77.25;99244.44;6122316;23;20094;-81
2021/06/08 03:07:57;;;;;;;15.32;9.40;;;;;;;16.98;76.46;99250.13;6123139;23;20033;-80
2021/06/08 03:10:23;;;;;;;10.88;9.38;;;;;;;17.01;76.35;99256.03;6124125;23;20033;-80
2021/06/08 03:12:55;;;;;;;9.90;8.88;;;;;;;17.04;75.74;99250.16;6097791;23;20022;-81
2021/06/08 03:15:27;;;;;;;9.93;8.90;;;;;;;17.10;75.74;99249.31;6097633;23;20101;-80
2021/06/08 03:17:53;;;;;;;11.63;8.77;;;;;;;17.19;75.75;99254.63;6098062;23;20064;-81
2021/06/08 03:20:37;;;;;;;9.60;8.60;;;;;;;17.28;75.05;99245.19;6073410;23;20413;-79
2021/06/08 03:23:07;;;;;;;9.77;8.77;;;;;;;17.40;74.97;99249.00;6122301;23;20097;-78
2021/06/08 03:25:35;;;;;;;9.85;8.07;;;;;;;17.44;74.86;99239.38;6098348;23;20081;-80
2021/06/08 03:28:02;;;;;;;10.45;8.88;;;;;;;17.54;74.28;99250.75;6049656;23;20022;-78
2021/06/08 03:30:28;;;;;;;13.20;8.18;;;;;;;17.58;74.60;99246.53;6147009;23;20032;-79
2021/06/08 03:32:55;;;;;;;11.40;7.93;;;;;;;17.64;73.84;99239.41;6121230;23;20077;-80
2021/06/08 03:35:23;;;;;;;11.70;8.27;;;;;;;17.68;73.43;99248.06;6122624;23;20120;-80
2021/06/08 03:37:51;;;;;;;17.65;9.30;;;;;;;17.65;73.53;99248.47;6122421;23;20022;-78
2021/06/08 03:40:17;;;;;;;9.60;8.70;;;;;;;17.69;73.16;99247.00;6123644;23;20244;-80
2021/06/08 03:42:43;;;;;;;10.30;8.52;;;;;;;17.77;72.94;99246.81;6127046;23;20417;-80
2021/06/08 03:45:12;;;;;;;12.10;8.98;;;;;;;17.84;73.10;99255.88;6126365;23;20060;-81
2021/06/08 03:47:38;;;;;;;17.88;9.45;;;;;;;17.92;72.77;99252.97;6125646;23;20077;-81
2021/06/08 03:50:05;;;;;;;11.20;8.05;;;;;;;17.94;72.69;99259.06;6125175;23;20050;-79
2021/06/08 03:52:31;;;;;;;8.88;7.97;;;;;;;18.00;72.43;99254.66;6125437;23;20025;-80
2021/06/08 03:54:57;;;;;;;13.38;8.85;;;;;;;18.14;71.73;99261.81;6122930;23;20018;-78
2021/06/08 03:57:28;;;;;;;10.15;7.75;;;;;;;18.14;72.04;99256.34;6123864;23;20452;-80
2021/06/08 03:59:56;;;;;;;12.85;8.40;;;;;;;18.23;71.35;99243.28;6123073;23;20045;-79
2021/06/08 04:02:22;;;;;;;9.82;7.72;;;;;;;18.28;71.11;99246.22;6123542;23;20018;-82
2021/06/08 04:04:49;;;;;;;9.30;7.97;;;;;;;18.34;71.29;99256.34;6074708;23;20077;-80
2021/06/08 04:07:18;;;;;;;12.82;7.50;;;;;;;18.36;71.12;99254.25;6122779;23;20017;-78
2021/06/08 04:09:49;;;;;;;10.98;6.90;;;;;;;18.33;70.87;99254.66;6100583;23;20030;-78
2021/06/08 04:12:24;;;;;;;7.68;6.88;;;;;;;18.26;70.75;99260.13;6129890;23;20029;-80
2021/06/08 04:14:50;;;;;;;9.95;6.15;;;;;;;18.23;70.30;99259.72;6103637;23;20035;-80
2021/06/08 04:17:16;;;;;;;9.93;7.38;;;;;;;18.17;70.68;99261.41;6125141;23;20045;-80
2021/06/08 04:19:44;;;;;;;9.00;7.38;;;;;;;18.19;70.38;99258.44;6122741;23;20077;-81
2021/06/08 04:22:10;;;;;;;11.15;6.90;;;;;;;18.16;70.82;99261.59;6097393;23;20022;-81
2021/06/08 04:24:36;;;;;;;7.53;6.47;;;;;;;18.13;70.83;99259.28;6122697;23;20649;-82
2021/06/08 04:27:03;;;;;;;10.73;5.38;;;;;;;18.16;70.13;99258.88;6120882;23;20064;-80
2021/06/08 04:29:29;;;;;;;10.07;6.40;;;;;;;18.22;70.13;99264.34;6122245;23;20168;-79
2021/06/08 04:31:56;;;;;;;7.28;5.82;;;;;;;18.25;69.92;99257.63;6098671;23;20452;-80
2021/06/08 04:34:22;;;;;;;10.25;6.53;;;;;;;18.29;69.71;99265.19;6124255;23;20080;-82
2021/06/08 04:36:49;;;;;;;8.98;6.63;;;;;;;18.34;70.10;99255.50;6099991;23;20739;-81
2021/06/08 04:39:16;;;;;;;9.82;6.63;;;;;;;18.42;70.00;99261.59;6122024;23;20066;-80
2021/06/08 04:41:42;;;;;;;8.32;6.60;;;;;;;18.46;69.90;99254.63;6127223;23;20132;-80
2021/06/08 04:44:08;;;;;;;8.63;5.97;;;;;;;18.50;69.27;99257.78;6133911;23;20456;-80
2021/06/08 04:46:38;;;;;;;7.60;5.85;;;;;;;18.53;69.55;99260.94;6128721;23;20048;-83
2021/06/08 04:49:04;;;;;;;11.90;6.32;;;;;;;18.55;69.57;99264.31;6148629;23;20022;-80
2021/06/08 04:51:32;;;;;;;9.68;5.95;;;;;;;18.56;69.22;99266.00;6124376;23;20029;-82
2021/06/08 04:53:58;;;;;;;16.92;6.78;;;;;;;18.63;69.66;99262.44;6125561;23;20029;-84
2021/06/08 04:56:24;;;;;;;16.25;7.72;;;;;;;18.56;69.85;99266.00;6127487;23;20022;-84
2021/06/08 04:58:50;;;;;;;16.40;7.10;;;;;;;18.55;69.20;99268.97;6152798;23;20143;-84
2021/06/08 05:01:42;;;;;;;21.13;6.70;;;;;;;18.60;69.84;99271.06;6128754;23;20027;-81
2021/06/08 05:04:11;;;;;;;15.38;6.60;;;;;;;18.63;70.18;99271.47;6122681;23;20345;-80
2021/06/08 05:06:45;;;;;;;13.80;6.35;;;;;;;18.64;68.89;99266.84;6102002;23;20026;-81
2021/06/08 05:09:18;;;;;;;13.20;6.38;;;;;;;18.68;68.93;99279.03;6121632;23;20105;-80
2021/06/08 05:11:52;;;;;;;15.60;6.80;;;;;;;18.59;69.33;99274.84;6132718;23;20073;-81
2021/06/08 05:14:19;;;;;;;13.45;6.55;;;;;;;18.64;69.02;99272.31;6123854;23;20017;-81
2021/06/08 05:16:46;;;;;;;9.25;6.20;;;;;;;18.55;69.35;99283.50;6124078;23;20040;-81
2021/06/08 05:19:12;;;;;;;11.55;6.43;;;;;;;18.52;69.74;99283.06;6122721;23;20092;-80
2021/06/08 05:21:39;;;;;;;10.55;5.97;;;;;;;18.59;69.53;99274.84;6120803;23;20022;-81
2021/06/08 05:24:05;;;;;;;11.57;8.63;;;;;;;18.63;70.10;99281.59;6096620;23;20022;-81
2021/06/08 05:26:31;;;;;;;10.80;6.05;;;;;;;18.65;69.16;99280.34;6097089;23;20026;-83
2021/06/08 05:28:58;;;;;;;13.02;6.38;;;;;;;18.73;68.97;99277.41;6123266;23;20188;-82
2021/06/08 05:31:24;;;;;;;10.45;6.20;;;;;;;18.82;68.14;99286.22;6123138;23;20026;-79
2021/06/08 05:33:56;;;;;;;13.82;6.88;;;;;;;18.86;68.23;99278.41;6072974;23;20022;-82
2021/06/08 05:36:22;;;;;;;8.57;6.53;;;;;;;18.90;68.24;99287.88;6122407;23;20026;-82
2021/06/08 05:38:49;;;;;;;9.70;6.85;;;;;;;18.98;68.95;99280.28;6121099;23;20230;-83
2021/06/08 05:41:16;;;;;;;8.80;7.15;;;;;;;19.10;68.51;99287.84;6122574;23;20081;-79
2021/06/08 05:43:42;;;;;;;10.63;7.70;;;;;;;19.18;68.90;99279.38;6121964;23;20022;-80
2021/06/08 05:46:09;;;;;;;12.30;6.68;;;;;;;19.21;69.14;99285.28;6121898;23;20089;-80
2021/06/08 05:48:36;;;;;;;9.43;7.57;;;;;;;19.31;68.59;99282.09;6121486;23;20018;-83
2021/06/08 05:51:04;;;;;;;12.90;7.15;;;;;;;19.47;68.53;99284.31;6123943;23;20106;-80
2021/06/08 05:53:31;;;;;;;12.13;7.53;;;;;;;19.64;67.71;99286.59;6123769;23;20108;-80
2021/06/08 05:55:57;;;;;;;9.77;7.50;;;;;;;19.88;68.39;99284.97;6125233;23;20022;-81
2021/06/08 05:58:29;;;;;;;14.55;7.25;;;;;;;20.06;67.16;99292.47;6125476;23;20017;-82
2021/06/08 06:00:58;;;;;;;10.85;7.65;;;;;;;20.11;67.63;99288.00;6124797;23;20026;-83
2021/06/08 06:03:26;;;;;;;12.95;7.75;;;;;;;20.24;65.68;99284.31;6123812;23;20044;-83
2021/06/08 06:05:53;;;;;;;12.23;9.00;;;;;;;20.38;65.76;99283.13;6126145;23;20300;-84
2021/06/08 06:08:19;;;;;;;14.68;9.60;;;;;;;20.62;65.64;99291.63;6125519;23;20022;-81
2021/06/08 06:10:45;;;;;;;10.10;9.05;;;;;;;20.84;64.01;99278.28;6125299;23;20091;-81
2021/06/08 06:13:25;;;;;;;13.57;9.45;;;;;;;20.92;63.92;99275.28;6124608;23;20049;-82
2021/06/08 06:15:52;;;;;;;12.38;9.18;;;;;;;21.23;61.63;99282.53;6122489;23;20531;-80
2021/06/08 06:18:20;;;;;;;11.52;9.63;;;;;;;21.49;61.18;99272.28;6123390;23;20018;-84
2021/06/08 06:20:47;;;;;;;16.40;10.93;;;;;;;21.70;61.70;99277.31;6123300;23;20052;-83
2021/06/08 06:23:20;;;;;;;16.42;10.75;;;;;;;21.75;61.67;99280.19;6129280;23;20485;-81
2021/06/08 06:25:49;;;;;;;12.43;10.77;;;;;;;21.97;60.14;99282.41;6129329;23;20028;-83
2021/06/08 06:28:16;;;;;;;12.05;10.25;;;;;;;21.94;60.74;99277.38;6130882;23;20018;-83
2021/06/08 06:30:42;;;;;;;11.85;10.40;;;;;;;22.19;59.67;99280.00;6122849;23;20248;-82
2021/06/08 06:33:08;;;;;;;18.80;10.90;;;;;;;22.61;59.14;99283.53;6104230;23;20018;-82
2021/06/08 06:35:35;;;;;;;11.88;10.60;;;;;;;22.95;58.40;99283.81;6124530;23;20057;-82
2021/06/08 06:38:06;;;;;;;11.43;10.15;;;;;;;22.95;58.72;99281.06;6128902;23;20435;-80
2021/06/08 06:40:34;;;;;;;13.30;10.10;;;;;;;22.97;58.44;99281.66;6123327;23;20100;-84
2021/06/08 06:43:21;;;;;;;14.55;9.90;;;;;;;22.98;58.24;99284.16;6127096;23;20025;-81
2021/06/08 06:45:46;;;;;;;14.15;10.02;;;;;;;23.12;58.09;99278.41;6122327;23;20041;-83
2021/06/08 06:48:15;;;;;;;22.00;9.45;;;;;;;22.99;57.84;99282.25;6123915;23;20018;-82
2021/06/08 06:50:42;;;;;;;26.38;10.07;;;;;;;23.16;56.96;99280.44;6128755;23;20051;-83
2021/06/08 06:53:09;;;;;;;15.60;9.75;;;;;;;23.02;57.30;99284.53;6129854;23;20014;-82
2021/06/08 06:55:36;;;;;;;18.52;9.93;;;;;;;22.91;57.34;99266.88;6103146;23;20029;-84
2021/06/08 06:58:05;;;;;;;19.00;10.15;;;;;;;22.74;56.86;99272.25;6130506;23;20105;-81
2021/06/08 07:00:31;;;;;;;17.60;11.40;;;;;;;22.80;57.50;99271.31;6128807;23;20018;-82
2021/06/08 07:02:58;;;;;;;23.75;10.80;;;;;;;22.36;58.75;99270.81;6127094;23;20509;-84
2021/06/08 07:05:30;;;;;;;17.85;10.45;;;;;;;22.60;58.94;99287.38;6132934;23;20065;-83
2021/06/08 07:07:57;;;;;;;19.42;12.00;;;;;;;22.39;58.63;99275.84;6126025;23;20018;-83
2021/06/08 07:10:25;;;;;;;19.85;12.15;;;;;;;22.36;59.19;99284.59;6102182;23;20349;-83
2021/06/08 07:12:55;;;;;;;19.30;11.48;;;;;;;22.24;59.02;99283.75;6127755;23;20026;-82
2021/06/08 07:15:27;;;;;;;17.77;10.52;;;;;;;22.18;59.04;99284.66;6123290;23;20049;-82
2021/06/08 07:17:54;;;;;;;16.30;9.57;;;;;;;22.22;59.24;99283.13;6123799;23;20048;-82
2021/06/08 07:20:20;;;;;;;17.63;10.07;;;;;;;22.32;58.11;99280.63;6101781;23;20076;-83
2021/06/08 07:22:47;;;;;;;16.00;10.25;;;;;;;22.28;58.79;99284.94;6136527;23;20048;-83
2021/06/08 07:25:15;;;;;;;15.25;8.73;;;;;;;22.19;57.93;99286.34;6113663;23;20022;-83
2021/06/08 07:27:42;;;;;;;14.48;9.32;;;;;;;22.36;57.84;99289.25;6129755;23;20053;-82
2021/06/08 07:30:09;;;;;;;21.75;9.75;;;;;;;22.36;57.23;99276.31;6126097;23;20118;-82
2021/06/08 07:32:52;;;;;;;17.80;10.73;;;;;;;22.57;56.82;99290.63;6129730;23;20414;-84
2021/06/08 07:35:35;;;;;;;16.30;8.65;;;;;;;22.69;56.72;99285.94;6101114;23;20105;-83
2021/06/08 07:38:08;;;;;;;25.60;10.95;;;;;;;22.67;56.96;99292.75;6128790;23;20494;-83
2021/06/08 07:40:40;;;;;;;24.45;11.45;;;;;;;22.85;55.54;99290.75;6126782;23;20021;-82
2021/06/08 07:43:09;;;;;;;23.75;10.70;;;;;;;22.91;56.30;99288.09;6127589;23;20018;-84
2021/06/08 07:45:38;;;;;;;16.25;10.38;;;;;;;23.10;55.63;99297.94;6081140;23;20029;-82
2021/06/08 07:48:14;;;;;;;17.40;10.88;;;;;;;23.19;55.56;99299.25;6138209;23;20145;-81
2021/06/08 07:50:43;;;;;;;19.35;10.15;;;;;;;23.30;55.03;99292.88;6140287;23;20026;-80
2021/06/08 07:53:10;;;;;;;19.73;11.73;;;;;;;23.64;54.69;99293.00;6143666;23;20022;-82
2021/06/08 07:55:36;;;;;;;16.10;10.60;;;;;;;23.82;54.28;99295.63;6117920;23;20026;-82
2021/06/08 07:58:03;;;;;;;16.10;8.98;;;;;;;24.18;53.02;99287.16;6141897;23;20109;-82
2021/06/08 08:00:33;;;;;;;16.33;9.57;;;;;;;24.50;52.13;99304.06;6129959;23;20471;-82
2021/06/08 08:03:24;;;;;;;14.55;8.10;;;;;;;24.89;51.34;99293.88;6128804;23;20048;-81
2021/06/08 08:05:45;;;;;;;12.55;8.13;;;;;;;25.69;49.91;99291.66;6130430;23;20428;-84
2021/06/08 08:11:14;;;;;;;22.20;9.00;;;;;;;26.44;47.34;99287.19;6129596;23;20026;-81
2021/06/08 08:13:42;;;;;;;16.10;8.38;;;;;;;27.07;46.16;99290.19;6105544;23;20429;-82
2021/06/08 08:16:10;;;;;;;11.38;7.75;;;;;;;27.48;45.22;99282.91;6102377;23;20231;-83
2021/06/08 08:18:37;;;;;;;8.60;7.70;;;;;;;29.07;42.54;99284.84;6129340;23;20041;-82
2021/06/08 08:21:15;;;;;;;13.00;7.43;;;;;;;29.78;41.19;99278.19;6126820;23;20033;-83
2021/06/08 08:23:41;;;;;;;13.55;7.53;;;;;;;30.74;38.92;99272.22;6078736;23;20049;-83
2021/06/08 08:26:09;;;;;;;14.60;6.90;;;;;;;30.85;38.56;99273.81;6125651;23;20033;-84
2021/06/08 08:28:36;;;;;;;9.52;5.93;;;;;;;31.21;37.44;99276.22;6125784;23;20080;-82
2021/06/08 08:31:09;;;;;;;8.65;7.72;;;;;;;31.79;37.05;99264.91;6150937;23;20037;-83
2021/06/08 08:33:35;;;;;;;7.22;6.00;;;;;;;32.42;35.96;99272.94;6126118;23;20105;-83
2021/06/08 08:36:02;;;;;;;12.80;7.43;;;;;;;32.70;36.43;99269.44;6133299;23;20026;-81
2021/06/08 08:38:29;;;;;;;8.80;6.30;;;;;;;32.78;35.52;99258.34;6128780;23;20083;-82
2021/06/08 08:40:59;;;;;;;21.02;7.60;;;;;;;33.36;34.63;99257.81;6126392;23;20041;-81
2021/06/08 08:43:25;;;;;;;6.32;5.72;;;;;;;33.46;34.20;99259.56;6124185;23;20080;-82
2021/06/08 08:46:08;;;;;;;10.23;5.95;;;;;;;33.77;34.26;99254.16;6058735;23;20081;-83
2021/06/08 08:48:34;;;;;;;8.52;5.32;;;;;;;33.86;33.16;99254.25;6125458;23;20022;-81
2021/06/08 08:51:00;;;;;;;14.77;6.35;;;;;;;33.68;33.57;99244.84;6100872;23;20049;-82
2021/06/08 08:53:27;;;;;;;5.30;4.80;;;;;;;33.58;33.12;99253.47;6105391;23;20022;-84
2021/06/08 08:55:53;;;;;;;6.32;4.88;;;;;;;34.08;32.36;99242.28;6077813;23;20068;-83
2021/06/08 08:58:27;;;;;;;5.70;4.80;;;;;;;34.38;32.39;99246.31;6126901;23;20021;-84
2021/06/08 09:00:57;;;;;;;4.97;4.47;;;;;;;34.03;31.87;99242.38;6128592;23;20053;-85
2021/06/08 09:03:24;;;;;;;5.13;4.60;;;;;;;33.72;32.51;99242.25;6126485;23;20018;-80
2021/06/08 09:05:55;;;;;;;7.82;4.80;;;;;;;33.78;32.55;99233.38;6102502;23;20026;-84
2021/06/08 09:08:23;;;;;;;5.03;4.50;;;;;;;34.42;31.64;99243.69;6101153;23;20072;-84
2021/06/08 09:10:50;;;;;;;6.55;4.97;;;;;;;34.97;31.27;99244.22;6125613;23;20026;-83
2021/06/08 09:13:17;;;;;;;7.55;4.95;;;;;;;35.26;31.06;99240.06;6127777;23;20479;-83
2021/06/08 09:15:43;;;;;;;10.50;4.40;;;;;;;35.16;30.90;99241.19;6125874;23;20057;-81
2021/06/08 09:18:10;;;;;;;18.35;6.00;;;;;;;34.72;31.07;99244.91;6128437;23;20143;-81
2021/06/08 09:20:37;;;;;;;12.85;4.47;;;;;;;35.08;30.42;99244.78;6101847;23;20423;-84
2021/06/08 09:23:06;;;;;;;4.45;3.58;;;;;;;35.39;29.70;99235.47;6102703;23;20040;-82
2021/06/08 09:25:38;;;;;;;5.25;4.30;;;;;;;35.59;30.50;99236.88;6125656;23;20021;-84
2021/06/08 09:28:17;;;;;;;6.57;3.90;;;;;;;35.58;29.81;99236.06;6129374;23;20053;-83
2021/06/08 09:30:44;;;;;;;6.68;3.88;;;;;;;35.65;29.34;99236.41;6132899;23;20021;-84
2021/06/08 09:33:21;;;;;;;5.43;4.07;;;;;;;36.15;28.75;99232.31;6154656;23;20018;-81
2021/06/08 09:35:50;;;;;;;5.25;3.63;;;;;;;36.53;28.93;99232.50;6129912;23;20026;-83
2021/06/08 09:38:16;;;;;;;7.97;3.85;;;;;;;36.55;28.98;99226.53;6107900;23;20018;-84
2021/06/08 09:40:43;;;;;;;7.60;4.32;;;;;;;36.28;28.93;99224.88;6156797;23;20021;-82
2021/06/08 09:43:15;;;;;;;38.10;7.03;;;;;;;37.03;28.81;99228.22;6131479;23;20105;-85
2021/06/08 09:45:51;;;;;;;7.22;4.70;;;;;;;36.66;28.62;99219.38;6130473;23;20037;-84
2021/06/08 09:48:17;;;;;;;6.53;4.80;;;;;;;36.88;29.27;99210.66;6105732;23;20041;-84
2021/06/08 09:50:52;;;;;;;6.10;3.95;;;;;;;36.25;29.56;99194.56;6128622;23;20032;-83
2021/06/08 09:53:26;;;;;;;6.07;5.35;;;;;;;36.59;29.41;99202.97;6127181;23;20077;-83
2021/06/08 09:56:06;;;;;;;5.63;5.13;;;;;;;36.50;29.22;99199.38;6128864;23;20022;-85
2021/06/08 09:58:34;;;;;;;7.18;5.53;;;;;;;36.89;28.81;99192.59;6125827;23;20014;-84
2021/06/08 10:01:19;;;;;;;7.00;6.30;;;;;;;36.54;29.16;99197.53;6104610;23;20026;-81
2021/06/08 10:04:04;;;;;;;10.35;6.07;;;;;;;36.56;29.59;99197.19;6128908;23;20018;-82
2021/06/08 10:06:39;;;;;;;8.20;6.18;;;;;;;36.76;29.30;99196.47;6152750;23;20049;-84
2021/06/08 10:09:11;;;;;;;7.43;6.38;;;;;;;36.61;29.42;99186.56;6128845;23;20030;-83
2021/06/08 10:11:40;;;;;;;6.63;5.95;;;;;;;37.19;28.38;99181.41;6082550;23;20080;-83
2021/06/08 10:14:18;;;;;;;6.40;5.80;;;;;;;37.22;28.13;99191.16;6124281;23;20100;-84
2021/06/08 10:16:47;;;;;;;5.18;4.22;;;;;;;34.73;30.78;99182.78;6128229;23;20030;-84
2021/06/08 10:19:26;;;;;;;4.68;4.00;;;;;;;33.16;33.02;99178.94;6123654;23;20018;-81
2021/06/08 10:21:53;;;;;;;5.95;5.35;;;;;;;33.52;32.74;99176.22;6099187;23;20029;-83
2021/06/08 10:24:21;;;;;;;6.97;4.85;;;;;;;34.78;31.33;99168.59;6099461;23;20029;-83
2021/06/08 10:26:53;;;;;;;5.50;5.10;;;;;;;35.26;30.34;99144.50;6100320;23;20033;-81
2021/06/08 10:29:27;;;;;;;6.00;5.13;;;;;;;35.96;29.36;99145.41;6125153;23;20040;-86
2021/06/08 10:31:55;;;;;;;7.60;5.10;;;;;;;36.14;29.86;99152.69;6127510;23;20022;-84
2021/06/08 10:34:24;;;;;;;5.43;4.60;;;;;;;36.07;29.33;99158.00;6125412;23;20014;-86
2021/06/08 10:36:51;;;;;;;5.43;4.63;;;;;;;35.96;29.04;99145.41;6098470;23;20028;-86
2021/06/08 10:39:19;;;;;;;5.55;4.63;;;;;;;35.62;29.51;99141.44;6099448;23;20025;-83
2021/06/08 10:41:49;;;;;;;8.68;3.70;;;;;;;33.93;32.67;99147.22;6125347;23;20103;-81
2021/06/08 10:44:22;;;;;;;10.82;4.70;;;;;;;34.85;30.51;99139.19;6129559;23;20022;-83
2021/06/08 10:46:55;;;;;;;4.20;3.67;;;;;;;33.91;32.15;99138.31;6105966;23;20433;-84
2021/06/08 10:49:38;;;;;;;10.20;3.92;;;;;;;32.78;33.25;99135.16;6135427;23;20042;-83
2021/06/08 10:52:09;;;;;;;5.60;3.90;;;;;;;33.25;31.97;99127.47;6130223;23;20022;-84
2021/06/08 10:54:47;;;;;;;6.90;3.60;;;;;;;32.24;33.82;99131.09;6086081;23;20389;-83
2021/06/08 10:57:15;;;;;;;4.50;3.17;;;;;;;31.45;34.81;99123.41;6081179;23;20397;-85
2021/06/08 10:59:50;;;;;;;3.72;3.05;;;;;;;31.30;34.94;99126.41;6105406;23;20022;-83
2021/06/08 11:02:41;;;;;;;9.45;4.40;;;;;;;30.90;36.19;99125.81;6106428;23;20026;-82
2021/06/08 11:05:12;;;;;;;6.45;3.60;;;;;;;29.88;38.23;99131.53;6127121;23;20154;-86
2021/06/08 11:07:49;;;;;;;5.37;3.77;;;;;;;29.49;39.13;99113.66;6126772;23;20030;-85
2021/06/08 11:10:24;;;;;;;8.57;3.75;;;;;;;28.91;40.06;99120.91;6098590;23;20267;-83
2021/06/08 11:13:12;;;;;;;9.40;4.07;;;;;;;28.84;40.29;99119.25;6150371;23;20181;-83
2021/06/08 11:15:49;;;;;;;6.68;3.42;;;;;;;28.52;40.51;99122.47;6082563;23;20080;-81
2021/06/08 11:18:25;;;;;;;11.70;3.30;;;;;;;28.21;41.41;99134.72;6126510;23;20025;-82
2021/06/08 11:20:55;;;;;;;4.40;3.85;;;;;;;27.96;42.13;99138.31;6124966;23;20515;-83
2021/06/08 11:23:42;;;;;;;6.20;4.30;;;;;;;26.47;49.18;99131.44;6126901;23;20424;-81
2021/06/08 11:26:10;;;;;;;13.95;5.05;;;;;;;26.17;50.22;99138.41;6126371;23;20401;-84
2021/06/08 11:28:43;;;;;;;8.32;4.15;;;;;;;26.03;51.12;99148.28;6130270;23;20026;-82
2021/06/08 11:31:11;;;;;;;7.38;3.90;;;;;;;25.97;51.01;99154.91;6127967;23;20029;-82
2021/06/08 11:33:38;;;;;;;5.07;3.78;;;;;;;25.64;51.74;99167.84;6102082;23;20025;-86
2021/06/08 11:36:16;;;;;;;10.68;4.20;;;;;;;25.61;51.35;99165.59;6129652;23;20042;-83
2021/06/08 11:38:42;;;;;;;9.93;4.45;;;;;;;25.45;52.35;99174.88;6127425;23;20024;-84
2021/06/08 11:41:09;;;;;;;6.95;4.25;;;;;;;25.14;53.23;99166.19;6128464;23;20022;-84